Shannon, North Carolina
Current Conditions -  °F | °C
As of 8:52 PM on Monday 24 Nov 2014 (Local Time) from KMEB Reporting Station
Scattered Clouds Scattered Clouds  
Wind Chill: 64°   Ceiling: Unl
Heat Index: 64°   Visibility: 10mi
Dew Point: 60°   Wind: 14mph
Humidity: 87%   Direction: 220°SW
Pressure: 29.95"   Gusts: NA
Location:  34.85°N, 79.14°W
Report Text: KMEB 250152Z AUTO 22012KT 10SM FEW018 SCT024 18/16 A2995 RMK AO2 WSHFT 0130 RAE25 SLP141 P0001 T01780156
Loading
Personal Weather Stations






























Interactive Weather Map New forecast layout! Learn more

10-Day Weather Forecast

Advertisements
Track Severe Weather on mobile